Time;durP1;ratioP1;P1;durP2;ratioP2;P2;SDS_P1;SDS_P2;PMS_P1;PMS_P2;Temp;Humidity;BMP_temperature;BMP_pressure;BME280_temperature;BME280_humidity;BME280_pressure;Samples;Min_cycle;Max_cycle;Signal;HPM_P1;HPM_P2
2022/03/18 00:02:14;;;;;;;36.50;28.02;;;14.80;79.10;;;;;;5083325;28;20036;-60
2022/03/18 00:04:39;;;;;;;42.70;30.48;;;14.70;79.00;;;;;;5086536;27;20027;-60
2022/03/18 00:07:05;;;;;;;40.10;30.23;;;14.80;79.20;;;;;;5084984;28;20027;-60
2022/03/18 00:09:30;;;;;;;35.85;27.90;;;14.70;79.00;;;;;;5099614;27;20038;-60
2022/03/18 00:11:56;;;;;;;34.13;27.60;;;14.70;79.10;;;;;;5067129;28;20559;-60
2022/03/18 00:14:21;;;;;;;35.13;27.33;;;14.70;79.20;;;;;;5101999;27;20244;-60
2022/03/18 00:16:47;;;;;;;32.17;26.63;;;14.70;79.20;;;;;;5103543;27;20024;-60
2022/03/18 00:19:12;;;;;;;31.25;26.85;;;14.60;79.20;;;;;;5088158;28;20027;-60
2022/03/18 00:21:38;;;;;;;36.65;27.38;;;14.60;79.30;;;;;;5107708;27;20031;-60
2022/03/18 00:24:04;;;;;;;37.03;29.23;;;14.60;79.20;;;;;;5084859;28;20106;-60
2022/03/18 00:26:30;;;;;;;39.00;30.02;;;14.60;79.10;;;;;;5104425;28;20139;-60
2022/03/18 00:28:56;;;;;;;35.85;30.25;;;14.60;78.90;;;;;;5112045;27;20150;-60
2022/03/18 00:31:21;;;;;;;35.75;31.48;;;14.60;78.90;;;;;;5090625;28;20051;-60
2022/03/18 00:33:47;;;;;;;37.90;31.17;;;14.60;79.10;;;;;;5090626;28;20043;-60
2022/03/18 00:36:12;;;;;;;35.53;28.73;;;14.60;79.20;;;;;;5086411;27;20067;-60
2022/03/18 00:38:38;;;;;;;33.95;29.77;;;14.50;79.40;;;;;;5076031;28;20139;-60
2022/03/18 00:41:04;;;;;;;35.10;29.08;;;14.40;79.40;;;;;;5111425;27;20019;-59
2022/03/18 00:43:29;;;;;;;34.83;29.50;;;14.40;79.50;;;;;;5107174;27;20046;-60
2022/03/18 00:45:55;;;;;;;33.35;28.83;;;14.40;79.60;;;;;;5118614;27;20042;-60
2022/03/18 00:53:49;;;;;;;35.28;31.25;;;14.40;79.60;;;;;;5084352;27;20097;-60
2022/03/18 00:56:14;;;;;;;34.33;29.50;;;14.40;79.50;;;;;;5096086;27;20031;-60
2022/03/18 00:58:41;;;;;;;38.35;30.60;;;14.40;79.60;;;;;;5115471;27;20036;-60
2022/03/18 01:01:07;;;;;;;33.65;29.85;;;14.40;79.60;;;;;;5117153;27;20116;-60
2022/03/18 01:03:32;;;;;;;34.85;29.08;;;14.40;79.50;;;;;;5118728;27;20035;-60
2022/03/18 01:05:58;;;;;;;33.08;29.65;;;14.40;79.60;;;;;;5107404;27;20032;-60
2022/03/18 01:08:24;;;;;;;31.88;28.23;;;14.40;79.50;;;;;;5121848;27;21084;-60
2022/03/18 01:10:49;;;;;;;32.75;27.88;;;14.60;79.60;;;;;;5119543;27;20019;-59
2022/03/18 01:13:15;;;;;;;34.10;28.67;;;14.30;79.60;;;;;;5115415;27;20459;-60
2022/03/18 01:15:40;;;;;;;35.63;29.15;;;14.30;79.60;;;;;;5102373;27;20061;-60
2022/03/18 01:18:05;;;;;;;37.50;28.77;;;14.30;79.50;;;;;;5120640;27;20054;-60
2022/03/18 01:20:31;;;;;;;35.08;29.08;;;14.20;79.60;;;;;;5102633;27;20024;-60
2022/03/18 01:22:57;;;;;;;35.72;27.83;;;14.20;79.70;;;;;;5124072;27;20031;-60
2022/03/18 01:25:22;;;;;;;31.90;27.98;;;14.20;79.70;;;;;;5100242;27;20027;-60
2022/03/18 01:27:48;;;;;;;33.17;28.58;;;14.10;80.40;;;;;;5110658;27;20031;-60
2022/03/18 01:30:16;;;;;;;31.23;27.90;;;14.20;79.80;;;;;;5068244;27;20813;-60
2022/03/18 01:32:42;;;;;;;33.58;29.25;;;14.20;79.90;;;;;;5124831;27;20032;-60
2022/03/18 01:35:08;;;;;;;35.28;28.52;;;14.10;79.80;;;;;;5095771;27;20034;-59
2022/03/18 01:37:34;;;;;;;30.38;26.50;;;14.10;79.80;;;;;;5124984;27;20497;-60
2022/03/18 01:39:59;;;;;;;33.28;29.60;;;14.10;79.90;;;;;;5122866;27;20039;-60
2022/03/18 01:42:25;;;;;;;33.05;27.85;;;14.10;80.00;;;;;;5113225;27;20117;-60
2022/03/18 01:44:51;;;;;;;30.17;26.95;;;14.10;80.20;;;;;;5104169;27;20031;-59
2022/03/18 01:47:17;;;;;;;32.55;25.92;;;14.10;80.30;;;;;;5086815;27;20031;-60
2022/03/18 01:49:42;;;;;;;31.05;27.65;;;14.10;80.40;;;;;;5103611;27;20034;-60
2022/03/18 01:52:10;;;;;;;32.33;26.88;;;14.10;80.50;;;;;;5106693;27;20054;-60
2022/03/18 01:54:45;;;;;;;28.35;25.35;;;14.10;80.40;;;;;;5082346;28;20043;-60
2022/03/18 01:57:11;;;;;;;31.55;26.85;;;14.10;80.30;;;;;;5096480;27;20626;-60
2022/03/18 01:59:37;;;;;;;35.50;27.50;;;14.10;80.30;;;;;;5085424;27;20484;-60
2022/03/18 02:02:02;;;;;;;34.78;29.23;;;14.10;80.40;;;;;;5095638;28;20259;-60
2022/03/18 02:04:28;;;;;;;31.02;27.00;;;14.10;80.40;;;;;;5093076;27;20058;-60
2022/03/18 02:06:54;;;;;;;30.33;27.13;;;14.00;80.50;;;;;;5110843;27;20066;-60
2022/03/18 02:09:20;;;;;;;29.98;25.58;;;14.00;80.50;;;;;;5094160;27;20038;-60
2022/03/18 02:11:45;;;;;;;32.08;27.00;;;14.00;80.60;;;;;;5104540;27;20073;-60
2022/03/18 02:14:11;;;;;;;29.13;26.23;;;14.00;80.60;;;;;;5066112;28;20463;-60
2022/03/18 02:16:39;;;;;;;31.25;26.75;;;14.00;80.70;;;;;;5100888;27;20035;-60
2022/03/18 02:19:05;;;;;;;30.08;26.83;;;14.00;80.70;;;;;;5103501;27;20016;-60
2022/03/18 02:21:30;;;;;;;30.98;26.58;;;14.00;80.70;;;;;;5121674;27;20554;-60
2022/03/18 02:23:57;;;;;;;29.88;26.30;;;14.00;80.80;;;;;;5076461;28;20164;-60
2022/03/18 02:26:22;;;;;;;31.50;28.10;;;14.00;80.70;;;;;;5085902;27;20016;-60
2022/03/18 02:28:48;;;;;;;36.67;28.20;;;14.00;80.70;;;;;;5105503;27;20042;-60
2022/03/18 02:31:13;;;;;;;29.27;26.25;;;14.00;80.70;;;;;;5107266;27;20050;-60
2022/03/18 02:33:39;;;;;;;29.73;26.63;;;13.90;80.80;;;;;;5076021;27;20043;-60
2022/03/18 02:36:04;;;;;;;31.38;27.50;;;13.90;80.90;;;;;;5106626;27;20054;-60
2022/03/18 02:38:30;;;;;;;30.98;27.75;;;13.90;81.00;;;;;;5116851;27;20043;-60
2022/03/18 02:40:55;;;;;;;29.30;26.08;;;13.90;81.00;;;;;;5118661;27;20024;-60
2022/03/18 02:43:21;;;;;;;30.20;26.52;;;13.90;81.00;;;;;;5122143;27;20031;-60
2022/03/18 02:45:46;;;;;;;28.98;25.85;;;13.80;81.10;;;;;;5120397;27;20023;-60
2022/03/18 02:48:12;;;;;;;29.30;25.83;;;13.80;81.10;;;;;;5105595;27;20075;-60
2022/03/18 02:50:37;;;;;;;32.28;27.10;;;13.80;81.40;;;;;;5113491;27;20122;-60
2022/03/18 02:53:03;;;;;;;31.85;28.45;;;13.80;81.40;;;;;;5079933;28;20073;-60
2022/03/18 02:55:29;;;;;;;34.25;30.52;;;13.80;81.40;;;;;;5122918;27;20116;-60
2022/03/18 02:57:54;;;;;;;30.20;26.85;;;13.80;81.50;;;;;;5111111;27;20475;-61
2022/03/18 03:00:25;;;;;;;30.70;27.48;;;13.80;82.30;;;;;;5095366;27;20074;-60
2022/03/18 03:02:51;;;;;;;30.98;27.48;;;13.80;82.30;;;;;;5120288;27;20019;-60
2022/03/18 03:08:00;;;;;;;29.65;26.58;;;13.70;81.70;;;;;;5101102;27;20046;-60
2022/03/18 03:10:33;;;;;;;33.88;27.98;;;13.70;81.90;;;;;;5118568;27;20224;-60
2022/03/18 03:13:01;;;;;;;29.73;26.77;;;13.70;81.90;;;;;;5100352;27;20039;-60
2022/03/18 03:15:26;;;;;;;30.17;26.88;;;13.70;82.10;;;;;;5068132;28;20096;-60
2022/03/18 03:17:52;;;;;;;31.42;26.92;;;13.70;82.10;;;;;;5091782;27;20375;-60
2022/03/18 03:20:17;;;;;;;30.55;27.30;;;13.70;82.10;;;;;;5112257;27;20030;-60
2022/03/18 03:22:43;;;;;;;31.90;28.55;;;13.60;82.20;;;;;;5106064;27;20482;-60
2022/03/18 03:25:08;;;;;;;31.98;28.60;;;13.60;82.50;;;;;;5119499;27;20179;-59
2022/03/18 03:27:34;;;;;;;33.65;29.70;;;13.60;82.50;;;;;;5112947;27;20044;-59
2022/03/18 03:30:00;;;;;;;34.63;28.63;;;13.60;82.50;;;;;;5090728;28;20051;-60
2022/03/18 03:32:27;;;;;;;32.97;29.55;;;13.60;82.50;;;;;;5096428;28;20410;-60
2022/03/18 03:34:54;;;;;;;34.50;29.65;;;13.60;82.60;;;;;;5118552;27;20037;-60
2022/03/18 03:37:19;;;;;;;34.65;29.85;;;13.50;82.70;;;;;;5111853;27;20224;-60
2022/03/18 03:39:45;;;;;;;37.45;29.25;;;13.60;82.90;;;;;;5116266;27;20419;-60
2022/03/18 03:42:10;;;;;;;31.58;28.30;;;13.60;83.10;;;;;;5075258;27;20492;-59
2022/03/18 03:44:36;;;;;;;32.92;28.90;;;13.50;83.00;;;;;;5108729;27;20023;-60
2022/03/18 03:47:01;;;;;;;32.78;29.50;;;13.50;83.00;;;;;;5107481;27;20490;-59
2022/03/18 03:49:27;;;;;;;33.15;29.63;;;13.50;83.00;;;;;;5105039;27;20657;-59
2022/03/18 03:51:52;;;;;;;35.63;28.65;;;13.50;83.10;;;;;;5124397;27;20191;-60
2022/03/18 03:54:18;;;;;;;32.35;29.05;;;13.50;83.10;;;;;;5123760;27;20114;-58
2022/03/18 03:56:43;;;;;;;34.00;30.33;;;13.50;83.10;;;;;;5125960;27;20046;-59
2022/03/18 03:59:09;;;;;;;31.88;28.42;;;13.40;83.10;;;;;;5101023;27;20023;-60
2022/03/18 04:01:34;;;;;;;33.33;29.77;;;13.50;83.20;;;;;;5128348;27;20030;-60
2022/03/18 04:04:00;;;;;;;32.67;29.13;;;13.40;83.10;;;;;;5103955;27;20504;-60
2022/03/18 04:06:25;;;;;;;32.97;29.25;;;13.40;83.10;;;;;;5105100;27;20078;-59
2022/03/18 04:08:51;;;;;;;33.22;29.33;;;13.40;83.10;;;;;;5088775;27;20115;-59
2022/03/18 04:11:17;;;;;;;31.55;28.33;;;13.40;83.20;;;;;;5099582;28;20027;-59
2022/03/18 04:13:42;;;;;;;32.40;29.15;;;13.30;83.10;;;;;;5115616;27;20027;-60
2022/03/18 04:16:07;;;;;;;34.00;30.30;;;13.30;83.30;;;;;;5122722;27;20035;-59
2022/03/18 04:18:33;;;;;;;34.13;30.73;;;13.30;83.30;;;;;;5117272;27;20458;-60
2022/03/18 04:20:58;;;;;;;33.80;29.80;;;13.30;83.40;;;;;;5111565;27;20153;-59
2022/03/18 04:23:24;;;;;;;34.45;30.90;;;13.30;83.50;;;;;;5118472;27;20072;-60
2022/03/18 04:25:51;;;;;;;32.83;29.40;;;13.20;83.40;;;;;;5117535;27;20084;-59
2022/03/18 04:28:17;;;;;;;33.92;30.42;;;13.20;83.50;;;;;;5118523;27;20022;-59
2022/03/18 04:30:43;;;;;;;35.05;31.25;;;13.20;83.50;;;;;;5101180;27;20385;-60
2022/03/18 04:33:09;;;;;;;33.95;30.42;;;13.20;83.60;;;;;;5122906;27;20058;-59
2022/03/18 04:35:35;;;;;;;36.20;31.20;;;13.10;83.60;;;;;;5089869;27;20514;-60
2022/03/18 04:38:00;;;;;;;35.25;31.45;;;13.10;83.80;;;;;;5104661;27;20042;-58
2022/03/18 04:40:26;;;;;;;34.63;30.92;;;13.10;83.80;;;;;;5107806;27;20050;-60
2022/03/18 04:42:51;;;;;;;35.25;31.58;;;13.10;83.70;;;;;;5127507;27;20027;-60
2022/03/18 04:45:17;;;;;;;36.30;31.35;;;13.10;83.90;;;;;;5108123;27;20046;-59
2022/03/18 04:47:43;;;;;;;36.42;32.65;;;13.10;83.70;;;;;;5120903;27;20073;-59
2022/03/18 04:50:09;;;;;;;34.92;31.33;;;13.10;83.80;;;;;;5111336;27;20023;-59
2022/03/18 04:52:34;;;;;;;34.85;31.25;;;13.00;83.90;;;;;;5077285;28;20067;-60
2022/03/18 04:55:00;;;;;;;35.60;31.80;;;13.10;84.00;;;;;;5098535;27;20547;-59
2022/03/18 04:57:26;;;;;;;34.83;31.13;;;13.10;84.00;;;;;;5112710;27;20061;-58
2022/03/18 04:59:56;;;;;;;37.40;32.65;;;13.00;84.00;;;;;;5106993;27;20042;-59
2022/03/18 05:02:21;;;;;;;37.10;33.05;;;13.00;84.00;;;;;;5108942;27;20034;-59
2022/03/18 05:04:48;;;;;;;34.60;30.98;;;13.00;84.00;;;;;;5103904;27;20395;-59
2022/03/18 05:07:14;;;;;;;35.47;31.70;;;13.00;83.90;;;;;;5096398;27;20415;-59
2022/03/18 05:09:40;;;;;;;35.05;31.45;;;13.00;83.90;;;;;;5101341;27;20083;-58
2022/03/18 05:12:10;;;;;;;34.55;30.98;;;12.90;83.90;;;;;;5110560;27;20028;-58
2022/03/18 05:14:36;;;;;;;35.17;31.48;;;12.90;84.50;;;;;;5091282;27;20034;-59
2022/03/18 05:17:03;;;;;;;36.72;32.83;;;12.90;84.00;;;;;;5101403;27;20035;-58
2022/03/18 05:19:29;;;;;;;36.72;32.67;;;12.90;84.00;;;;;;5103215;27;20055;-60
2022/03/18 05:21:55;;;;;;;36.25;32.38;;;12.90;84.00;;;;;;5113630;27;20023;-59
2022/03/18 05:24:20;;;;;;;42.45;32.10;;;12.80;84.20;;;;;;5115112;27;20039;-58
2022/03/18 05:26:46;;;;;;;36.75;31.92;;;12.80;84.30;;;;;;5067423;28;20114;-59
2022/03/18 05:29:13;;;;;;;41.33;33.35;;;12.80;84.40;;;;;;5104129;27;20107;-57
2022/03/18 05:31:39;;;;;;;75.65;36.50;;;12.80;84.40;;;;;;5097766;27;20039;-59
2022/03/18 05:34:04;;;;;;;77.63;38.85;;;12.80;84.40;;;;;;5104659;27;20508;-60
2022/03/18 05:36:30;;;;;;;61.15;36.08;;;12.80;84.40;;;;;;5102940;27;20043;-59
2022/03/18 05:38:55;;;;;;;72.72;37.53;;;12.80;84.50;;;;;;5116292;27;20028;-59
2022/03/18 05:41:21;;;;;;;96.75;40.95;;;12.80;84.50;;;;;;5123372;27;20031;-60
2022/03/18 05:43:46;;;;;;;124.78;39.33;;;12.80;84.70;;;;;;5121663;27;20467;-58
2022/03/18 05:46:12;;;;;;;113.70;39.35;;;12.70;84.70;;;;;;5117614;27;20039;-59
2022/03/18 05:48:38;;;;;;;451.25;64.55;;;12.70;84.70;;;;;;5120686;27;20034;-59
2022/03/18 05:51:03;;;;;;;187.95;45.88;;;12.70;84.80;;;;;;5123119;27;20100;-59
2022/03/18 05:53:29;;;;;;;159.70;42.75;;;12.70;84.80;;;;;;5100507;27;20035;-59
2022/03/18 05:58:40;;;;;;;175.38;46.17;;;12.70;84.80;;;;;;5100328;27;20418;-58
2022/03/18 06:01:05;;;;;;;149.40;42.92;;;12.70;84.70;;;;;;5094367;28;20024;-60
2022/03/18 06:03:31;;;;;;;148.45;43.08;;;12.70;84.80;;;;;;5104912;27;20074;-59
2022/03/18 06:05:57;;;;;;;126.75;41.20;;;12.70;84.70;;;;;;5101819;27;20245;-59
2022/03/18 06:13:50;;;;;;;138.90;41.10;;;12.70;84.80;;;;;;5105174;27;20510;-60
2022/03/18 06:16:16;;;;;;;120.13;39.67;;;12.60;84.80;;;;;;5099370;27;20035;-59
2022/03/18 06:18:41;;;;;;;101.07;40.85;;;12.70;85.00;;;;;;5111328;27;20106;-58
2022/03/18 06:21:07;;;;;;;118.28;39.55;;;12.60;85.20;;;;;;5114051;27;20023;-60
2022/03/18 06:23:33;;;;;;;104.55;40.63;;;12.60;85.30;;;;;;5109287;27;20063;-59
2022/03/18 06:26:01;;;;;;;117.32;41.47;;;12.60;85.40;;;;;;5091262;27;20027;-59
2022/03/18 06:28:27;;;;;;;125.45;39.50;;;12.60;85.70;;;;;;5096579;27;20031;-58
2022/03/18 06:30:52;;;;;;;118.65;43.15;;;12.50;85.70;;;;;;5121358;27;20517;-59
2022/03/18 06:33:18;;;;;;;92.78;40.13;;;12.60;85.90;;;;;;5103867;27;20096;-60
2022/03/18 06:35:43;;;;;;;78.72;39.15;;;12.60;85.80;;;;;;5124160;27;20083;-58
2022/03/18 06:38:09;;;;;;;85.28;38.83;;;12.60;85.80;;;;;;5122063;27;20072;-59
2022/03/18 06:40:34;;;;;;;85.22;38.50;;;12.50;85.80;;;;;;5102453;27;20079;-58
2022/03/18 06:43:00;;;;;;;108.68;40.63;;;12.50;85.70;;;;;;5101239;27;20035;-60
2022/03/18 06:45:26;;;;;;;77.15;38.80;;;12.50;85.70;;;;;;5086068;27;20327;-58
2022/03/18 06:47:52;;;;;;;85.40;37.97;;;12.50;85.80;;;;;;5123781;27;20031;-58
2022/03/18 06:50:18;;;;;;;85.60;38.92;;;12.50;85.90;;;;;;5122244;27;20046;-60
2022/03/18 06:52:43;;;;;;;80.20;38.53;;;12.50;85.90;;;;;;5121742;27;20391;-59
2022/03/18 06:55:09;;;;;;;81.90;37.25;;;12.40;86.00;;;;;;5121300;27;20039;-59
2022/03/18 06:57:34;;;;;;;115.28;40.17;;;12.40;86.00;;;;;;5102997;27;20043;-58
2022/03/18 07:00:00;;;;;;;102.68;37.53;;;12.40;86.20;;;;;;5102070;27;20458;-60
2022/03/18 07:02:26;;;;;;;82.70;38.53;;;12.40;86.30;;;;;;5087724;27;20494;-59
2022/03/18 07:04:52;;;;;;;82.07;36.25;;;12.40;86.50;;;;;;5121385;27;20118;-58
2022/03/18 07:07:17;;;;;;;88.78;37.42;;;12.40;86.60;;;;;;5120537;27;20398;-58
2022/03/18 07:09:43;;;;;;;85.95;38.20;;;12.40;86.60;;;;;;5119361;27;20114;-59
2022/03/18 07:12:09;;;;;;;95.90;39.55;;;12.40;86.60;;;;;;5121329;27;20023;-59
2022/03/18 07:14:34;;;;;;;100.57;38.53;;;12.40;86.70;;;;;;5121939;27;20046;-58
2022/03/18 07:19:44;;;;;;;80.22;37.40;;;12.30;86.70;;;;;;5105901;27;20033;-60
2022/03/18 07:22:10;;;;;;;78.88;36.65;;;12.30;86.70;;;;;;5102511;27;20043;-58
2022/03/18 07:24:35;;;;;;;83.65;37.80;;;12.30;86.80;;;;;;5115887;27;20037;-60
2022/03/18 07:27:01;;;;;;;76.85;37.70;;;12.30;86.80;;;;;;5119200;27;20393;-60
2022/03/18 07:29:26;;;;;;;71.80;37.67;;;12.30;86.80;;;;;;5117938;27;20026;-59
2022/03/18 07:31:54;;;;;;;70.00;37.17;;;12.30;86.80;;;;;;5083880;28;20324;-60
2022/03/18 07:34:21;;;;;;;70.13;36.85;;;12.30;87.00;;;;;;5099628;28;20067;-60
2022/03/18 07:36:50;;;;;;;76.43;37.65;;;12.30;86.90;;;;;;5086914;28;20252;-59
2022/03/18 07:39:16;;;;;;;78.38;37.90;;;12.30;86.80;;;;;;5094321;28;20103;-60
2022/03/18 07:41:41;;;;;;;140.75;40.92;;;12.40;87.00;;;;;;5099058;28;20381;-59
2022/03/18 07:44:07;;;;;;;110.15;39.33;;;12.40;87.40;;;;;;5098566;28;20108;-59
2022/03/18 07:46:32;;;;;;;323.27;56.28;;;12.40;86.80;;;;;;5083478;28;20066;-59
2022/03/18 07:48:58;;;;;;;104.32;37.90;;;12.40;87.20;;;;;;5097759;28;20024;-59
2022/03/18 07:51:23;;;;;;;68.60;37.88;;;12.40;86.80;;;;;;5076285;28;20257;-58
2022/03/18 07:53:49;;;;;;;126.35;43.08;;;12.40;86.50;;;;;;5096824;28;20096;-60
2022/03/18 07:56:15;;;;;;;114.57;41.47;;;12.40;86.60;;;;;;5085575;28;20183;-58
2022/03/18 07:58:40;;;;;;;84.50;39.05;;;12.40;86.80;;;;;;5094381;28;20019;-59
2022/03/18 08:01:06;;;;;;;115.07;40.78;;;12.50;86.70;;;;;;5089206;28;20070;-58
2022/03/18 08:03:31;;;;;;;65.75;36.35;;;12.50;86.30;;;;;;5074428;28;20122;-60
2022/03/18 08:05:57;;;;;;;72.82;36.97;;;12.40;86.20;;;;;;5097465;28;20246;-59
2022/03/18 08:08:22;;;;;;;75.57;37.97;;;12.50;86.10;;;;;;5081998;28;20399;-58
2022/03/18 08:10:48;;;;;;;98.30;39.55;;;12.50;86.00;;;;;;5100312;28;20768;-61
2022/03/18 08:13:14;;;;;;;85.38;37.88;;;12.50;86.00;;;;;;5103887;28;20546;-61
2022/03/18 08:15:40;;;;;;;90.85;40.17;;;12.50;85.90;;;;;;5081158;28;20036;-61
2022/03/18 08:18:05;;;;;;;86.85;39.55;;;12.60;85.90;;;;;;5082310;28;20711;-63
2022/03/18 08:20:31;;;;;;;79.43;38.67;;;12.60;85.70;;;;;;5076616;28;20538;-62
2022/03/18 08:22:56;;;;;;;97.53;39.67;;;12.60;85.80;;;;;;5077857;28;20818;-61
2022/03/18 08:25:22;;;;;;;146.02;41.72;;;12.60;85.60;;;;;;5096206;27;20074;-61
2022/03/18 08:27:48;;;;;;;125.72;41.67;;;12.60;85.50;;;;;;5079215;28;20399;-61
2022/03/18 08:30:14;;;;;;;108.07;39.17;;;12.60;85.90;;;;;;5099305;27;20121;-62
2022/03/18 08:32:39;;;;;;;151.52;44.20;;;12.60;85.70;;;;;;5099353;27;20498;-63
2022/03/18 08:35:07;;;;;;;105.40;39.45;;;12.60;85.60;;;;;;5084935;27;20035;-62
2022/03/18 08:40:16;;;;;;;131.32;43.47;;;12.70;85.60;;;;;;5105261;27;20054;-62
2022/03/18 08:42:42;;;;;;;199.90;49.90;;;12.70;85.90;;;;;;5121680;27;20450;-63
2022/03/18 08:45:08;;;;;;;184.00;46.55;;;12.70;85.80;;;;;;5082300;27;20560;-61
2022/03/18 08:47:34;;;;;;;148.57;45.70;;;12.70;86.10;;;;;;5118824;27;20035;-62
2022/03/18 08:49:59;;;;;;;153.02;48.95;;;12.70;86.10;;;;;;5121816;27;20019;-62
2022/03/18 08:52:25;;;;;;;133.35;45.00;;;12.70;86.20;;;;;;5095323;27;20039;-62
2022/03/18 08:54:50;;;;;;;119.22;42.30;;;12.70;86.10;;;;;;5116106;27;20036;-62
2022/03/18 08:57:16;;;;;;;131.50;44.70;;;12.70;85.40;;;;;;5104149;27;20103;-61
2022/03/18 08:59:42;;;;;;;116.00;44.13;;;12.70;85.40;;;;;;5061579;27;20119;-63
2022/03/18 09:02:08;;;;;;;124.22;41.03;;;12.70;85.70;;;;;;5108349;27;20038;-59
2022/03/18 09:04:33;;;;;;;88.38;41.58;;;12.70;85.60;;;;;;5095522;27;20123;-58
2022/03/18 09:06:59;;;;;;;117.80;44.53;;;12.80;85.30;;;;;;5106207;27;20115;-59
2022/03/18 09:09:24;;;;;;;126.93;42.25;;;12.80;85.70;;;;;;5081427;27;20622;-59
2022/03/18 09:11:50;;;;;;;94.55;43.17;;;12.80;85.60;;;;;;5110862;27;20050;-59
2022/03/18 09:14:15;;;;;;;98.28;41.30;;;12.80;85.70;;;;;;5075970;27;20050;-59
2022/03/18 09:16:41;;;;;;;103.50;42.63;;;12.70;85.20;;;;;;5095376;27;20300;-59
2022/03/18 09:19:06;;;;;;;99.75;42.45;;;12.80;85.20;;;;;;5094111;27;20054;-59
2022/03/18 09:21:32;;;;;;;125.80;43.92;;;12.80;85.20;;;;;;5117124;27;20469;-60
2022/03/18 09:23:58;;;;;;;120.05;42.67;;;12.80;85.30;;;;;;5097060;27;20529;-59
2022/03/18 09:26:23;;;;;;;101.43;41.72;;;12.80;85.20;;;;;;5118963;27;20039;-60
2022/03/18 09:28:49;;;;;;;102.50;43.22;;;12.80;85.10;;;;;;5106239;27;20395;-59
2022/03/18 09:31:14;;;;;;;113.35;43.97;;;12.80;85.20;;;;;;5097577;27;20077;-59
2022/03/18 09:33:43;;;;;;;82.90;41.67;;;12.80;85.30;;;;;;5082843;27;20657;-60
2022/03/18 09:36:10;;;;;;;85.63;41.03;;;12.80;85.20;;;;;;5121329;27;20068;-59
2022/03/18 09:38:36;;;;;;;94.13;43.00;;;12.80;84.90;;;;;;5098504;27;20088;-59
2022/03/18 09:41:01;;;;;;;92.05;42.30;;;12.80;84.90;;;;;;5101643;27;20043;-58
2022/03/18 09:43:37;;;;;;;105.80;43.78;;;12.80;84.90;;;;;;5100604;27;20505;-59
2022/03/18 09:46:04;;;;;;;107.88;43.63;;;12.80;84.80;;;;;;5119522;27;20511;-60
2022/03/18 09:48:30;;;;;;;98.93;42.08;;;12.80;84.60;;;;;;5082661;27;20027;-59
2022/03/18 09:50:55;;;;;;;115.82;44.83;;;12.80;84.70;;;;;;5071338;27;20183;-59
2022/03/18 09:53:21;;;;;;;97.65;45.97;;;12.80;84.60;;;;;;5095012;27;20035;-58
2022/03/18 09:55:46;;;;;;;226.70;51.85;;;12.80;84.90;;;;;;5082355;27;20083;-59
2022/03/18 09:58:13;;;;;;;95.75;44.55;;;12.90;85.20;;;;;;5098935;27;20027;-58
2022/03/18 10:00:38;;;;;;;97.57;46.30;;;12.90;84.90;;;;;;5087749;27;20119;-59
2022/03/18 10:03:11;;;;;;;110.35;46.33;;;12.90;85.50;;;;;;5096543;27;20046;-59
2022/03/18 10:05:50;;;;;;;108.05;44.95;;;12.90;84.90;;;;;;5073871;27;20039;-59
2022/03/18 10:08:17;;;;;;;119.43;46.97;;;12.90;84.80;;;;;;5114917;27;20295;-59
2022/03/18 10:10:46;;;;;;;115.22;43.97;;;12.90;84.80;;;;;;5087451;27;20023;-59
2022/03/18 10:13:12;;;;;;;101.45;43.67;;;12.90;84.60;;;;;;5096931;27;20033;-59
2022/03/18 10:15:38;;;;;;;110.32;43.55;;;12.90;84.40;;;;;;5086274;27;20126;-59
2022/03/18 10:18:04;;;;;;;108.25;45.58;;;12.90;84.30;;;;;;5095440;27;20584;-60
2022/03/18 10:20:30;;;;;;;123.20;48.30;;;13.00;84.30;;;;;;5107224;27;20111;-59
2022/03/18 10:23:02;;;;;;;113.97;47.78;;;13.00;84.30;;;;;;5069710;27;20031;-59
2022/03/18 10:25:39;;;;;;;123.65;49.05;;;13.00;84.30;;;;;;5098338;27;20467;-59
2022/03/18 10:28:06;;;;;;;133.55;46.55;;;13.00;84.50;;;;;;5068288;27;20701;-60
2022/03/18 10:30:32;;;;;;;106.30;48.13;;;13.10;84.20;;;;;;5099167;27;20173;-60
2022/03/18 10:32:58;;;;;;;84.95;42.60;;;13.00;84.20;;;;;;5116484;27;20167;-59
2022/03/18 10:38:30;;;;;;;157.15;51.53;;;13.10;83.70;;;;;;5096042;27;20091;-59
2022/03/18 10:40:55;;;;;;;112.85;44.65;;;13.10;84.00;;;;;;5073017;28;20033;-59
2022/03/18 10:43:21;;;;;;;124.20;47.30;;;13.10;84.00;;;;;;5089082;27;20118;-59
2022/03/18 10:46:04;;;;;;;113.88;46.72;;;13.10;83.90;;;;;;5094794;27;20035;-60
2022/03/18 10:48:30;;;;;;;129.15;48.05;;;13.10;83.80;;;;;;5097217;27;20095;-59
2022/03/18 10:51:06;;;;;;;170.00;52.00;;;13.20;83.70;;;;;;5097801;27;20400;-60
2022/03/18 10:53:32;;;;;;;91.22;41.92;;;13.20;83.80;;;;;;5057627;27;20039;-59
2022/03/18 10:56:00;;;;;;;111.28;46.10;;;13.20;83.30;;;;;;5082037;27;20048;-59
2022/03/18 10:58:29;;;;;;;182.07;50.15;;;13.20;83.40;;;;;;5109066;27;20028;-61
2022/03/18 11:00:56;;;;;;;115.22;47.50;;;13.20;83.50;;;;;;5106950;27;20026;-59
2022/03/18 11:03:22;;;;;;;286.73;57.75;;;13.20;83.50;;;;;;5091623;28;20027;-60
2022/03/18 11:05:50;;;;;;;161.98;50.65;;;13.30;83.50;;;;;;5073387;28;20024;-59
2022/03/18 11:08:23;;;;;;;291.50;62.83;;;13.30;83.50;;;;;;5081621;27;20038;-59
2022/03/18 11:11:07;;;;;;;219.38;55.10;;;13.30;83.80;;;;;;5089677;27;20409;-59
2022/03/18 11:14:03;;;;;;;163.20;47.67;;;13.30;83.70;;;;;;5104806;27;20032;-59
2022/03/18 11:16:30;;;;;;;128.80;45.47;;;13.30;83.80;;;;;;5087508;27;20290;-59
2022/03/18 11:18:57;;;;;;;143.00;48.05;;;13.30;83.60;;;;;;5084241;27;20032;-59
2022/03/18 11:21:25;;;;;;;162.10;47.97;;;13.30;83.80;;;;;;5097063;27;20019;-58
2022/03/18 11:23:51;;;;;;;162.60;48.70;;;13.30;83.50;;;;;;5091487;27;20116;-60
2022/03/18 11:26:17;;;;;;;217.10;52.65;;;13.30;83.70;;;;;;5074336;28;20041;-60
2022/03/18 11:28:43;;;;;;;169.63;49.80;;;13.30;84.60;;;;;;5071481;27;20087;-60
2022/03/18 11:31:10;;;;;;;173.00;47.78;;;13.40;84.10;;;;;;5071017;28;20829;-59
2022/03/18 11:33:37;;;;;;;150.32;47.80;;;13.40;84.00;;;;;;5080383;27;20023;-58
2022/03/18 11:36:04;;;;;;;380.88;64.50;;;13.50;84.00;;;;;;5061688;28;20200;-59
2022/03/18 11:38:51;;;;;;;288.63;56.55;;;13.50;84.30;;;;;;5080625;27;20804;-58
2022/03/18 11:41:17;;;;;;;188.45;48.97;;;13.50;84.00;;;;;;5101752;27;20026;-59
2022/03/18 11:43:43;;;;;;;178.82;48.03;;;13.60;83.90;;;;;;5086866;27;20078;-59
2022/03/18 11:46:17;;;;;;;176.82;49.78;;;13.60;83.70;;;;;;5088964;28;20027;-60
2022/03/18 11:48:49;;;;;;;169.57;50.28;;;13.60;83.80;;;;;;5101259;28;20035;-60
2022/03/18 11:51:25;;;;;;;180.10;48.15;;;13.60;83.80;;;;;;5088987;27;20082;-58
2022/03/18 11:53:54;;;;;;;160.30;46.55;;;13.60;83.70;;;;;;5095672;27;20453;-59
2022/03/18 11:56:46;;;;;;;163.95;46.22;;;13.70;83.50;;;;;;5103780;27;20666;-59
2022/03/18 11:59:24;;;;;;;127.75;45.42;;;13.60;83.40;;;;;;5090232;27;20031;-60
2022/03/18 12:01:56;;;;;;;121.18;43.80;;;13.60;83.50;;;;;;5082865;27;20047;-59
2022/03/18 12:04:34;;;;;;;128.05;43.53;;;13.70;83.70;;;;;;5061343;27;20035;-58
2022/03/18 12:07:12;;;;;;;150.88;45.63;;;13.70;83.30;;;;;;5099026;27;20073;-59
2022/03/18 12:10:00;;;;;;;139.45;45.47;;;13.70;83.30;;;;;;5061639;27;20060;-59
2022/03/18 12:12:26;;;;;;;121.75;43.53;;;13.70;83.40;;;;;;5077433;27;20483;-59
2022/03/18 12:14:53;;;;;;;145.93;45.70;;;13.70;83.30;;;;;;5084769;27;20620;-60
2022/03/18 12:17:19;;;;;;;172.45;46.45;;;13.70;83.50;;;;;;5075879;27;20054;-60
2022/03/18 12:19:52;;;;;;;141.73;46.45;;;13.80;84.00;;;;;;5068196;28;20458;-59
2022/03/18 12:22:19;;;;;;;172.98;48.03;;;13.80;84.00;;;;;;5078309;27;20034;-60
2022/03/18 12:24:45;;;;;;;178.45;48.72;;;13.80;84.10;;;;;;5083735;27;20047;-59
2022/03/18 12:27:10;;;;;;;148.18;45.78;;;13.80;83.90;;;;;;5110920;27;20020;-59
2022/03/18 12:29:36;;;;;;;136.77;42.50;;;13.90;83.60;;;;;;5091590;27;20043;-59
2022/03/18 12:32:09;;;;;;;146.73;43.25;;;13.90;83.20;;;;;;5074730;28;20067;-59
2022/03/18 12:34:35;;;;;;;134.88;45.85;;;13.90;83.10;;;;;;5066296;28;20043;-58
2022/03/18 12:37:03;;;;;;;163.10;45.22;;;13.90;83.10;;;;;;5076432;28;20039;-59
2022/03/18 12:39:29;;;;;;;162.52;45.88;;;13.90;82.90;;;;;;5065526;28;20099;-59
2022/03/18 12:42:11;;;;;;;163.23;47.10;;;14.00;83.00;;;;;;5056097;28;20690;-60
2022/03/18 12:44:36;;;;;;;119.38;43.28;;;14.00;82.90;;;;;;5039895;28;20090;-60
2022/03/18 12:47:02;;;;;;;170.57;46.40;;;14.10;82.70;;;;;;5040450;28;21378;-60